• Join FlightAware (Why Join?)
  • Login
  • US Flag 
05:23AM EDT


 

Airport Tracker/Info


-or-


 

Live Flight TrackerFlight Track Log ✈ PDT4166 ✈ 10-Jun-2013 ✈ KPHL - KSYR

Flight Track Log - Related Links

Times and Time Zones

All times are in EDT time to prevent confusion due to time zone crossing. See the PDT4166 flight status page for this flight to view local times or setup timezone preferences in your user account.

Time Position Orientation Groundspeed Altitude Reporting Facility
EDT Latitude Longitude Course Direction KTS MPH feet Rate Location/Type
05:13PM 39.8833 -75.2000 303° West 120 138 700  Level Philadelphia TRACON
05:14PM 39.9167 -75.1833 21° North 154 177 1,700 1,320 Climbing Philadelphia TRACON
05:15PM 39.9500 -75.1500 37° Northeast 169 194 3,100 1,440 Climbing Philadelphia TRACON
05:16PM 40.0141 -75.3641 323° Northwest  Level FlightAware Approximate
05:16PM 39.9833 -75.1667 339° North 164 189 4,600  Level Philadelphia TRACON
05:17PM 40.0625 -75.4125 323° Northwest  Level FlightAware Approximate
05:17PM 40.0167 -75.2167 311° West 168 193 6,100  Level Philadelphia TRACON
05:18PM 40.1109 -75.4552 303° West  Level FlightAware Approximate
05:18PM 40.0500 -75.2667 311° West 175 201 7,000  Level Philadelphia TRACON
05:19PM 40.0833 -75.3167 311° West 179 206 8,200 720 Climbing Philadelphia TRACON
05:21PM 40.1186 -75.3961 300° West 197 227 9,000 360 Climbing New York Center
05:22PM 40.1619 -75.4642 310° West 207 238 9,100  Climbing New York Center
05:23PM 40.2117 -75.5247 317° Northwest 232 267 9,100 660 Level New York Center
05:24PM 40.2531 -75.5819 313° West 232 267 10,500 1,320 Climbing New York Center
05:25PM 40.2867 -75.6250 316° Northwest 204 235 11,800 720 Climbing New York Center
05:26PM 40.3153 -75.6869 301° West 194 223 12,000 60 Climbing New York Center
05:27PM 40.3647 -75.7506 316° Northwest 216 249 12,000 240 Level New York Center
05:28PM 40.4014 -75.8214 304° West 223 257 12,500 840 Climbing New York Center
05:29PM 40.4350 -75.8647 316° Northwest 206 237 13,800 900 Climbing New York Center
05:30PM 40.4883 -75.8822 346° North 189 217 14,400 600 Climbing New York Center
05:31PM 40.5500 -75.9058 344° North 200 230 15,000 300 Climbing New York Center
05:32PM 40.6092 -75.9350 339° North 219 252 15,000  Level New York Center
05:33PM 40.6767 -75.9647 342° North 239 275 15,000  Level New York Center
05:34PM 40.7419 -75.9917 343° North 246 283 15,000  Level New York Center
05:35PM 40.8094 -76.0214 342° North 246 283 15,000  Level New York Center
05:36PM 40.8708 -76.0508 340° North 246 283 15,000  Level New York Center
05:37PM 40.9383 -76.0781 343° North 251 289 15,000  Level New York Center
05:38PM 41.0117 -76.1139 340° North 246 283 15,000  Level New York Center
05:39PM 41.0711 -76.1381 343° North 246 283 15,000  Level New York Center
05:40PM 41.1406 -76.1628 345° North 246 283 15,000  Level New York Center
05:41PM 41.2119 -76.1986 339° North 246 283 15,000  Level New York Center
05:42PM 41.2828 -76.2017 358° North 246 283 15,000  Level New York Center
05:43PM 41.3558 -76.1939 North 253 291 15,000  Level New York Center
05:44PM 41.4225 -76.1964 358° North 259 298 15,000  Level New York Center
05:45PM 41.4956 -76.1911 North 259 298 15,000  Level New York Center
05:46PM 41.5775 -76.1783 North 259 298 15,000  Level New York Center
05:47PM 41.6503 -76.1761 North 259 298 15,000  Level New York Center
05:48PM 41.7233 -76.1736 North 259 298 15,000  Level New York Center
05:49PM 41.7903 -76.1678 North 259 298 15,000 -120 Level New York Center
05:50PM 41.8636 -76.1600 North 259 298 14,800 -540 Descending New York Center
05:51PM 41.9511 -76.1586 North 271 312 14,000 -720 Descending New York Center
05:52PM 42.0306 -76.1511 North 280 322 13,400 -600 Descending New York Center
05:53PM 42.1017 -76.1431 North 286 329 12,800 -660 Descending New York Center
05:54PM 42.1831 -76.1383 North 292 336 12,100 -720 Descending New York Center
05:55PM 42.2647 -76.1256 North 292 336 11,400 -840 Descending New York Center
05:55PM 42.3011 -76.1233 North 291 335 11,000 -420 Descending Boston Center
05:56PM 42.3639 -76.1131 North 289 333 11,000  Level Boston Center
05:57PM 42.4369 -76.1089 North 270 311 11,000  Level Boston Center
05:58PM 42.5103 -76.0964 North 266 306 11,000  Level Boston Center
05:59PM 42.5856 -76.0894 North 266 306 11,000 -300 Level Boston Center
06:00PM 42.6603 -76.1053 351° North 277 319 10,400 -720 Descending Boston Center
06:01PM 42.7344 -76.1294 347° North 285 328 9,600 -840 Descending Boston Center
06:02PM 42.8081 -76.1733 336° Northwest 283 326 8,800 -1,080 Descending Boston Center
06:03PM 42.8778 -76.2089 340° North 261 300 7,500 -1,440 Descending Boston Center
06:04PM 42.9369 -76.2522 332° Northwest 206 237 5,900 -1,620 Descending Boston Center
06:05PM 42.9897 -76.2894 333° Northwest 211 243 4,300 -1,680 Descending Boston Center
06:06PM 43.0447 -76.3300 332° Northwest 236 272 2,600 -960 Descending Boston Center
06:07PM 43.0869 -76.3156 14° North 179 206 2,400 -240 Descending Boston Center